sensor_id;sensor_type;location;lat;lon;timestamp;temperature;humidity
64924;HTU21D;51436;44.692;39.214;2024-03-08T00:01:40;4.54;67.52
64924;HTU21D;51436;44.692;39.214;2024-03-08T00:04:06;4.57;67.49
64924;HTU21D;51436;44.692;39.214;2024-03-08T00:06:37;4.54;67.43
64924;HTU21D;51436;44.692;39.214;2024-03-08T00:09:03;4.52;67.56
64924;HTU21D;51436;44.692;39.214;2024-03-08T00:11:30;4.53;67.56
64924;HTU21D;51436;44.692;39.214;2024-03-08T00:13:57;4.56;67.57
64924;HTU21D;51436;44.692;39.214;2024-03-08T00:16:23;4.62;67.46
64924;HTU21D;51436;44.692;39.214;2024-03-08T00:18:50;4.65;67.39
64924;HTU21D;51436;44.692;39.214;2024-03-08T00:21:16;4.63;67.30
64924;HTU21D;51436;44.692;39.214;2024-03-08T00:23:42;4.61;67.37
64924;HTU21D;51436;44.692;39.214;2024-03-08T00:26:09;4.59;67.39
64924;HTU21D;51436;44.692;39.214;2024-03-08T00:28:35;4.60;67.39
64924;HTU21D;51436;44.692;39.214;2024-03-08T00:31:02;4.53;67.43
64924;HTU21D;51436;44.692;39.214;2024-03-08T00:33:28;4.47;67.55
64924;HTU21D;51436;44.692;39.214;2024-03-08T00:35:55;4.39;67.67
64924;HTU21D;51436;44.692;39.214;2024-03-08T00:38:24;4.36;67.72
64924;HTU21D;51436;44.692;39.214;2024-03-08T00:40:50;4.34;67.75
64924;HTU21D;51436;44.692;39.214;2024-03-08T00:43:17;4.33;67.72
64924;HTU21D;51436;44.692;39.214;2024-03-08T00:45:43;4.31;67.72
64924;HTU21D;51436;44.692;39.214;2024-03-08T00:48:09;4.33;67.71
64924;HTU21D;51436;44.692;39.214;2024-03-08T00:50:37;4.34;67.66
64924;HTU21D;51436;44.692;39.214;2024-03-08T00:53:03;4.37;67.62
64924;HTU21D;51436;44.692;39.214;2024-03-08T00:55:30;4.39;67.52
64924;HTU21D;51436;44.692;39.214;2024-03-08T00:57:57;4.37;67.59
64924;HTU21D;51436;44.692;39.214;2024-03-08T01:00:23;4.38;67.60
64924;HTU21D;51436;44.692;39.214;2024-03-08T01:02:50;4.42;67.61
64924;HTU21D;51436;44.692;39.214;2024-03-08T01:05:16;4.45;67.47
64924;HTU21D;51436;44.692;39.214;2024-03-08T01:07:43;4.50;67.36
64924;HTU21D;51436;44.692;39.214;2024-03-08T01:10:17;4.50;67.36
64924;HTU21D;51436;44.692;39.214;2024-03-08T01:12:46;4.53;67.35
64924;HTU21D;51436;44.692;39.214;2024-03-08T01:15:13;4.54;67.35
64924;HTU21D;51436;44.692;39.214;2024-03-08T01:17:42;4.50;67.36
64924;HTU21D;51436;44.692;39.214;2024-03-08T01:20:10;4.46;67.44
64924;HTU21D;51436;44.692;39.214;2024-03-08T01:22:40;4.46;67.39
64924;HTU21D;51436;44.692;39.214;2024-03-08T01:25:07;4.48;67.38
64924;HTU21D;51436;44.692;39.214;2024-03-08T01:27:34;4.46;67.40
64924;HTU21D;51436;44.692;39.214;2024-03-08T01:30:03;4.43;67.39
64924;HTU21D;51436;44.692;39.214;2024-03-08T01:32:30;4.36;67.60
64924;HTU21D;51436;44.692;39.214;2024-03-08T01:34:56;4.36;67.62
64924;HTU21D;51436;44.692;39.214;2024-03-08T01:37:23;4.38;67.58
64924;HTU21D;51436;44.692;39.214;2024-03-08T01:39:49;4.37;67.55
64924;HTU21D;51436;44.692;39.214;2024-03-08T01:42:16;4.39;67.49
64924;HTU21D;51436;44.692;39.214;2024-03-08T01:45:11;4.37;67.49
64924;HTU21D;51436;44.692;39.214;2024-03-08T01:48:01;4.34;67.58
64924;HTU21D;51436;44.692;39.214;2024-03-08T01:50:27;4.34;67.64
64924;HTU21D;51436;44.692;39.214;2024-03-08T01:53:17;4.31;67.61
64924;HTU21D;51436;44.692;39.214;2024-03-08T01:55:48;4.33;67.55
64924;HTU21D;51436;44.692;39.214;2024-03-08T01:58:15;4.36;67.57
64924;HTU21D;51436;44.692;39.214;2024-03-08T02:00:46;4.38;67.47
64924;HTU21D;51436;44.692;39.214;2024-03-08T02:03:17;4.36;67.49
64924;HTU21D;51436;44.692;39.214;2024-03-08T02:05:47;4.36;67.49
64924;HTU21D;51436;44.692;39.214;2024-03-08T02:08:16;4.35;67.54
64924;HTU21D;51436;44.692;39.214;2024-03-08T02:10:46;4.32;67.57
64924;HTU21D;51436;44.692;39.214;2024-03-08T02:13:13;4.31;67.60
64924;HTU21D;51436;44.692;39.214;2024-03-08T02:18:36;4.32;67.53
64924;HTU21D;51436;44.692;39.214;2024-03-08T02:21:04;4.31;67.55
64924;HTU21D;51436;44.692;39.214;2024-03-08T02:23:32;4.29;67.65
64924;HTU21D;51436;44.692;39.214;2024-03-08T02:25:58;4.28;67.65
64924;HTU21D;51436;44.692;39.214;2024-03-08T02:28:25;4.27;67.70
64924;HTU21D;51436;44.692;39.214;2024-03-08T02:30:52;4.23;67.66
64924;HTU21D;51436;44.692;39.214;2024-03-08T02:33:28;4.13;67.84
64924;HTU21D;51436;44.692;39.214;2024-03-08T02:35:54;4.10;67.98
64924;HTU21D;51436;44.692;39.214;2024-03-08T02:38:27;4.12;67.88
64924;HTU21D;51436;44.692;39.214;2024-03-08T02:40:56;4.17;67.78
64924;HTU21D;51436;44.692;39.214;2024-03-08T02:43:26;4.22;67.69
64924;HTU21D;51436;44.692;39.214;2024-03-08T02:45:52;4.23;67.63
64924;HTU21D;51436;44.692;39.214;2024-03-08T02:48:19;4.17;67.77
64924;HTU21D;51436;44.692;39.214;2024-03-08T02:50:46;4.17;67.86
64924;HTU21D;51436;44.692;39.214;2024-03-08T02:53:16;4.21;67.76
64924;HTU21D;51436;44.692;39.214;2024-03-08T02:55:45;4.21;67.68
64924;HTU21D;51436;44.692;39.214;2024-03-08T02:58:13;4.15;67.84
64924;HTU21D;51436;44.692;39.214;2024-03-08T03:00:40;4.14;67.87
64924;HTU21D;51436;44.692;39.214;2024-03-08T03:03:07;4.15;67.81
64924;HTU21D;51436;44.692;39.214;2024-03-08T03:05:33;4.12;67.88
64924;HTU21D;51436;44.692;39.214;2024-03-08T03:08:00;4.10;67.89
64924;HTU21D;51436;44.692;39.214;2024-03-08T03:10:26;4.13;67.81
64924;HTU21D;51436;44.692;39.214;2024-03-08T03:12:53;4.17;67.81
64924;HTU21D;51436;44.692;39.214;2024-03-08T03:15:21;4.23;67.67
64924;HTU21D;51436;44.692;39.214;2024-03-08T03:17:56;4.26;67.60
64924;HTU21D;51436;44.692;39.214;2024-03-08T03:20:22;4.29;67.58
64924;HTU21D;51436;44.692;39.214;2024-03-08T03:22:52;4.30;67.52
64924;HTU21D;51436;44.692;39.214;2024-03-08T03:25:19;4.34;67.46
64924;HTU21D;51436;44.692;39.214;2024-03-08T03:27:55;4.35;67.43
64924;HTU21D;51436;44.692;39.214;2024-03-08T03:30:24;4.31;67.55
64924;HTU21D;51436;44.692;39.214;2024-03-08T03:32:53;4.29;67.63
64924;HTU21D;51436;44.692;39.214;2024-03-08T03:35:21;4.29;67.60
64924;HTU21D;51436;44.692;39.214;2024-03-08T03:37:48;4.31;67.59
64924;HTU21D;51436;44.692;39.214;2024-03-08T03:40:28;4.30;67.57
64924;HTU21D;51436;44.692;39.214;2024-03-08T03:42:55;4.24;67.69
64924;HTU21D;51436;44.692;39.214;2024-03-08T03:45:23;4.18;67.80
64924;HTU21D;51436;44.692;39.214;2024-03-08T03:47:49;4.15;67.89
64924;HTU21D;51436;44.692;39.214;2024-03-08T03:50:16;4.17;67.84
64924;HTU21D;51436;44.692;39.214;2024-03-08T03:52:47;4.18;67.80
64924;HTU21D;51436;44.692;39.214;2024-03-08T03:55:15;4.20;67.80
64924;HTU21D;51436;44.692;39.214;2024-03-08T03:57:42;4.23;67.71
64924;HTU21D;51436;44.692;39.214;2024-03-08T04:00:10;4.16;67.84
64924;HTU21D;51436;44.692;39.214;2024-03-08T04:02:41;4.14;67.93
64924;HTU21D;51436;44.692;39.214;2024-03-08T04:05:09;4.10;67.91
64924;HTU21D;51436;44.692;39.214;2024-03-08T04:07:37;4.10;67.94
64924;HTU21D;51436;44.692;39.214;2024-03-08T04:10:04;4.13;68.01
64924;HTU21D;51436;44.692;39.214;2024-03-08T04:12:35;4.19;67.88
64924;HTU21D;51436;44.692;39.214;2024-03-08T04:15:01;4.29;67.67
64924;HTU21D;51436;44.692;39.214;2024-03-08T04:17:28;4.39;67.45
64924;HTU21D;51436;44.692;39.214;2024-03-08T04:19:54;4.41;67.42
64924;HTU21D;51436;44.692;39.214;2024-03-08T04:22:21;4.41;67.47
64924;HTU21D;51436;44.692;39.214;2024-03-08T04:24:48;4.42;67.51
64924;HTU21D;51436;44.692;39.214;2024-03-08T04:27:15;4.45;67.49
64924;HTU21D;51436;44.692;39.214;2024-03-08T04:29:41;4.48;67.41
64924;HTU21D;51436;44.692;39.214;2024-03-08T04:32:08;4.45;67.45
64924;HTU21D;51436;44.692;39.214;2024-03-08T04:34:34;4.44;67.52
64924;HTU21D;51436;44.692;39.214;2024-03-08T04:37:02;4.45;67.55
64924;HTU21D;51436;44.692;39.214;2024-03-08T04:39:28;4.43;67.53
64924;HTU21D;51436;44.692;39.214;2024-03-08T04:42:02;4.41;67.67
64924;HTU21D;51436;44.692;39.214;2024-03-08T04:44:37;4.39;67.73
64924;HTU21D;51436;44.692;39.214;2024-03-08T04:47:04;4.38;67.72
64924;HTU21D;51436;44.692;39.214;2024-03-08T04:49:34;4.39;67.72
64924;HTU21D;51436;44.692;39.214;2024-03-08T04:52:04;4.41;67.65
64924;HTU21D;51436;44.692;39.214;2024-03-08T04:54:31;4.41;67.62
64924;HTU21D;51436;44.692;39.214;2024-03-08T04:56:57;4.37;67.66
64924;HTU21D;51436;44.692;39.214;2024-03-08T04:59:27;4.28;67.86
64924;HTU21D;51436;44.692;39.214;2024-03-08T05:01:53;4.30;67.86
64924;HTU21D;51436;44.692;39.214;2024-03-08T05:04:20;4.35;67.70
64924;HTU21D;51436;44.692;39.214;2024-03-08T05:06:46;4.30;67.76
64924;HTU21D;51436;44.692;39.214;2024-03-08T05:09:13;4.30;67.75
64924;HTU21D;51436;44.692;39.214;2024-03-08T05:11:40;4.29;67.70
64924;HTU21D;51436;44.692;39.214;2024-03-08T05:14:07;4.28;67.72
64924;HTU21D;51436;44.692;39.214;2024-03-08T05:16:33;4.24;67.75
64924;HTU21D;51436;44.692;39.214;2024-03-08T05:18:59;4.14;67.89
64924;HTU21D;51436;44.692;39.214;2024-03-08T05:21:26;4.06;68.07
64924;HTU21D;51436;44.692;39.214;2024-03-08T05:23:52;4.08;68.04
64924;HTU21D;51436;44.692;39.214;2024-03-08T05:26:19;4.10;67.94
64924;HTU21D;51436;44.692;39.214;2024-03-08T05:28:46;4.14;67.86
64924;HTU21D;51436;44.692;39.214;2024-03-08T05:31:21;4.12;67.81
64924;HTU21D;51436;44.692;39.214;2024-03-08T05:33:50;4.09;67.91
64924;HTU21D;51436;44.692;39.214;2024-03-08T05:36:19;4.13;67.85
64924;HTU21D;51436;44.692;39.214;2024-03-08T05:38:46;4.16;67.77
64924;HTU21D;51436;44.692;39.214;2024-03-08T05:41:16;4.17;67.72
64924;HTU21D;51436;44.692;39.214;2024-03-08T05:43:44;4.18;67.70
64924;HTU21D;51436;44.692;39.214;2024-03-08T05:46:10;4.20;67.68
64924;HTU21D;51436;44.692;39.214;2024-03-08T05:48:38;4.24;67.63
64924;HTU21D;51436;44.692;39.214;2024-03-08T05:51:04;4.31;67.54
64924;HTU21D;51436;44.692;39.214;2024-03-08T05:53:31;4.32;67.49
64924;HTU21D;51436;44.692;39.214;2024-03-08T05:55:58;4.34;67.49
64924;HTU21D;51436;44.692;39.214;2024-03-08T05:58:25;4.38;67.46
64924;HTU21D;51436;44.692;39.214;2024-03-08T06:00:51;4.35;67.53
64924;HTU21D;51436;44.692;39.214;2024-03-08T06:03:17;4.37;67.58
64924;HTU21D;51436;44.692;39.214;2024-03-08T06:05:48;4.42;67.47
64924;HTU21D;51436;44.692;39.214;2024-03-08T06:08:15;4.38;67.56
64924;HTU21D;51436;44.692;39.214;2024-03-08T06:10:42;4.34;67.71
64924;HTU21D;51436;44.692;39.214;2024-03-08T06:13:08;4.34;67.70
64924;HTU21D;51436;44.692;39.214;2024-03-08T06:15:35;4.27;67.77
64924;HTU21D;51436;44.692;39.214;2024-03-08T06:18:24;4.23;67.90
64924;HTU21D;51436;44.692;39.214;2024-03-08T06:20:51;4.28;67.83
64924;HTU21D;51436;44.692;39.214;2024-03-08T06:23:17;4.29;67.76
64924;HTU21D;51436;44.692;39.214;2024-03-08T06:29:11;4.24;67.82
64924;HTU21D;51436;44.692;39.214;2024-03-08T06:31:39;4.23;67.85
64924;HTU21D;51436;44.692;39.214;2024-03-08T06:34:05;4.21;67.87
64924;HTU21D;51436;44.692;39.214;2024-03-08T06:36:33;4.21;67.86
64924;HTU21D;51436;44.692;39.214;2024-03-08T06:39:07;4.24;67.73
64924;HTU21D;51436;44.692;39.214;2024-03-08T06:41:38;4.22;67.72
64924;HTU21D;51436;44.692;39.214;2024-03-08T06:44:04;4.18;67.84
64924;HTU21D;51436;44.692;39.214;2024-03-08T06:46:31;4.20;67.82
64924;HTU21D;51436;44.692;39.214;2024-03-08T06:48:57;4.21;67.72
64924;HTU21D;51436;44.692;39.214;2024-03-08T06:51:24;4.21;67.73
64924;HTU21D;51436;44.692;39.214;2024-03-08T06:53:50;4.21;67.72
64924;HTU21D;51436;44.692;39.214;2024-03-08T06:56:18;4.22;67.67
64924;HTU21D;51436;44.692;39.214;2024-03-08T06:58:45;4.19;67.70
64924;HTU21D;51436;44.692;39.214;2024-03-08T07:01:14;4.22;67.70
64924;HTU21D;51436;44.692;39.214;2024-03-08T07:04:05;4.28;67.65
64924;HTU21D;51436;44.692;39.214;2024-03-08T07:06:32;4.34;67.50
64924;HTU21D;51436;44.692;39.214;2024-03-08T07:08:59;4.38;67.47
64924;HTU21D;51436;44.692;39.214;2024-03-08T07:11:26;4.36;67.46
64924;HTU21D;51436;44.692;39.214;2024-03-08T07:13:52;4.42;67.44
64924;HTU21D;51436;44.692;39.214;2024-03-08T07:16:20;4.39;67.45
64924;HTU21D;51436;44.692;39.214;2024-03-08T07:18:47;4.35;67.54
64924;HTU21D;51436;44.692;39.214;2024-03-08T07:21:13;4.34;67.55
64924;HTU21D;51436;44.692;39.214;2024-03-08T07:23:40;4.34;67.58
64924;HTU21D;51436;44.692;39.214;2024-03-08T07:26:21;4.37;67.51
64924;HTU21D;51436;44.692;39.214;2024-03-08T07:28:47;4.39;67.52
64924;HTU21D;51436;44.692;39.214;2024-03-08T07:31:13;4.46;67.42
64924;HTU21D;51436;44.692;39.214;2024-03-08T07:33:43;4.43;67.43
64924;HTU21D;51436;44.692;39.214;2024-03-08T07:36:09;4.39;67.50
64924;HTU21D;51436;44.692;39.214;2024-03-08T07:38:35;4.42;67.52
64924;HTU21D;51436;44.692;39.214;2024-03-08T07:41:01;4.44;67.44
64924;HTU21D;51436;44.692;39.214;2024-03-08T07:43:28;4.42;67.49
64924;HTU21D;51436;44.692;39.214;2024-03-08T07:45:55;4.38;67.55
64924;HTU21D;51436;44.692;39.214;2024-03-08T07:48:21;4.37;67.59
64924;HTU21D;51436;44.692;39.214;2024-03-08T07:50:51;4.39;67.56
64924;HTU21D;51436;44.692;39.214;2024-03-08T07:53:17;4.38;67.57
64924;HTU21D;51436;44.692;39.214;2024-03-08T07:55:43;4.41;67.55
64924;HTU21D;51436;44.692;39.214;2024-03-08T07:58:11;4.45;67.54
64924;HTU21D;51436;44.692;39.214;2024-03-08T08:00:37;4.49;67.43
64924;HTU21D;51436;44.692;39.214;2024-03-08T08:03:06;4.47;67.49
64924;HTU21D;51436;44.692;39.214;2024-03-08T08:05:34;4.44;67.57
64924;HTU21D;51436;44.692;39.214;2024-03-08T08:08:02;4.43;67.56
64924;HTU21D;51436;44.692;39.214;2024-03-08T08:10:33;4.36;67.64
64924;HTU21D;51436;44.692;39.214;2024-03-08T08:12:59;4.38;67.59
64924;HTU21D;51436;44.692;39.214;2024-03-08T08:15:25;4.42;67.56
64924;HTU21D;51436;44.692;39.214;2024-03-08T08:17:52;4.47;67.49
64924;HTU21D;51436;44.692;39.214;2024-03-08T08:20:18;4.54;67.36
64924;HTU21D;51436;44.692;39.214;2024-03-08T08:22:45;4.53;67.41
64924;HTU21D;51436;44.692;39.214;2024-03-08T08:25:14;4.58;67.40
64924;HTU21D;51436;44.692;39.214;2024-03-08T08:27:53;4.65;67.27
64924;HTU21D;51436;44.692;39.214;2024-03-08T08:30:20;4.68;67.20
64924;HTU21D;51436;44.692;39.214;2024-03-08T08:32:46;4.63;67.36
64924;HTU21D;51436;44.692;39.214;2024-03-08T08:35:13;4.61;67.44
64924;HTU21D;51436;44.692;39.214;2024-03-08T08:37:39;4.62;67.43
64924;HTU21D;51436;44.692;39.214;2024-03-08T08:40:06;4.59;67.53
64924;HTU21D;51436;44.692;39.214;2024-03-08T08:42:37;4.63;67.51
64924;HTU21D;51436;44.692;39.214;2024-03-08T08:45:07;4.63;67.43
64924;HTU21D;51436;44.692;39.214;2024-03-08T08:47:36;4.66;67.40
64924;HTU21D;51436;44.692;39.214;2024-03-08T08:50:04;4.73;67.29
64924;HTU21D;51436;44.692;39.214;2024-03-08T08:52:32;4.80;67.17
64924;HTU21D;51436;44.692;39.214;2024-03-08T08:55:01;4.82;67.12
64924;HTU21D;51436;44.692;39.214;2024-03-08T08:57:29;4.87;67.08
64924;HTU21D;51436;44.692;39.214;2024-03-08T08:59:59;4.84;67.17
64924;HTU21D;51436;44.692;39.214;2024-03-08T09:02:26;4.83;67.21
64924;HTU21D;51436;44.692;39.214;2024-03-08T09:04:53;4.78;67.31
64924;HTU21D;51436;44.692;39.214;2024-03-08T09:07:19;4.74;67.39
64924;HTU21D;51436;44.692;39.214;2024-03-08T09:09:45;4.68;67.49
64924;HTU21D;51436;44.692;39.214;2024-03-08T09:12:12;4.68;67.52
64924;HTU21D;51436;44.692;39.214;2024-03-08T09:14:42;4.72;67.46
64924;HTU21D;51436;44.692;39.214;2024-03-08T09:17:09;4.74;67.46
64924;HTU21D;51436;44.692;39.214;2024-03-08T09:19:36;4.75;67.46
64924;HTU21D;51436;44.692;39.214;2024-03-08T09:22:06;4.77;67.43
64924;HTU21D;51436;44.692;39.214;2024-03-08T09:24:32;4.79;67.37
64924;HTU21D;51436;44.692;39.214;2024-03-08T09:26:59;4.81;67.30
64924;HTU21D;51436;44.692;39.214;2024-03-08T09:29:25;4.83;67.29
64924;HTU21D;51436;44.692;39.214;2024-03-08T09:31:52;4.86;67.22
64924;HTU21D;51436;44.692;39.214;2024-03-08T09:34:18;4.83;67.24
64924;HTU21D;51436;44.692;39.214;2024-03-08T09:36:44;4.81;67.33
64924;HTU21D;51436;44.692;39.214;2024-03-08T09:39:11;4.82;67.31
64924;HTU21D;51436;44.692;39.214;2024-03-08T09:41:43;4.87;67.25
64924;HTU21D;51436;44.692;39.214;2024-03-08T09:44:11;4.91;67.17
64924;HTU21D;51436;44.692;39.214;2024-03-08T09:46:40;4.90;67.16
64924;HTU21D;51436;44.692;39.214;2024-03-08T09:49:07;4.87;67.20
64924;HTU21D;51436;44.692;39.214;2024-03-08T09:51:35;4.84;67.28
64924;HTU21D;51436;44.692;39.214;2024-03-08T09:54:02;4.83;67.29
64924;HTU21D;51436;44.692;39.214;2024-03-08T09:56:35;4.76;67.38
64924;HTU21D;51436;44.692;39.214;2024-03-08T09:59:05;4.66;67.59
64924;HTU21D;51436;44.692;39.214;2024-03-08T10:01:38;4.67;67.61
64924;HTU21D;51436;44.692;39.214;2024-03-08T10:04:05;4.65;67.63
64924;HTU21D;51436;44.692;39.214;2024-03-08T10:06:32;4.67;67.58
64924;HTU21D;51436;44.692;39.214;2024-03-08T10:08:59;4.68;67.52
64924;HTU21D;51436;44.692;39.214;2024-03-08T10:11:26;4.68;67.49
64924;HTU21D;51436;44.692;39.214;2024-03-08T10:13:53;4.75;67.39
64924;HTU21D;51436;44.692;39.214;2024-03-08T10:16:19;4.80;67.27
64924;HTU21D;51436;44.692;39.214;2024-03-08T10:18:46;4.83;67.23
64924;HTU21D;51436;44.692;39.214;2024-03-08T10:21:12;4.84;67.20
64924;HTU21D;51436;44.692;39.214;2024-03-08T10:23:41;4.82;67.23
64924;HTU21D;51436;44.692;39.214;2024-03-08T10:26:13;4.79;67.28
64924;HTU21D;51436;44.692;39.214;2024-03-08T10:28:48;4.79;67.28
64924;HTU21D;51436;44.692;39.214;2024-03-08T10:31:16;4.77;67.30
64924;HTU21D;51436;44.692;39.214;2024-03-08T10:33:43;4.75;67.37
64924;HTU21D;51436;44.692;39.214;2024-03-08T10:36:11;4.69;67.41
64924;HTU21D;51436;44.692;39.214;2024-03-08T10:38:40;4.67;67.49
64924;HTU21D;51436;44.692;39.214;2024-03-08T10:41:09;4.62;67.52
64924;HTU21D;51436;44.692;39.214;2024-03-08T10:49:17;4.71;67.34
64924;HTU21D;51436;44.692;39.214;2024-03-08T10:51:50;4.71;67.37
64924;HTU21D;51436;44.692;39.214;2024-03-08T10:54:19;4.69;67.39
64924;HTU21D;51436;44.692;39.214;2024-03-08T10:56:49;4.68;67.40
64924;HTU21D;51436;44.692;39.214;2024-03-08T10:59:17;4.71;67.42
64924;HTU21D;51436;44.692;39.214;2024-03-08T11:01:45;4.68;67.42
64924;HTU21D;51436;44.692;39.214;2024-03-08T11:04:11;4.63;67.52
64924;HTU21D;51436;44.692;39.214;2024-03-08T11:09:29;4.72;67.39
64924;HTU21D;51436;44.692;39.214;2024-03-08T11:14:48;4.79;67.27
64924;HTU21D;51436;44.692;39.214;2024-03-08T11:17:16;4.80;67.28
64924;HTU21D;51436;44.692;39.214;2024-03-08T11:19:47;4.81;67.27
64924;HTU21D;51436;44.692;39.214;2024-03-08T11:22:28;4.88;67.17
64924;HTU21D;51436;44.692;39.214;2024-03-08T11:25:04;4.87;67.18
64924;HTU21D;51436;44.692;39.214;2024-03-08T11:27:36;4.88;67.20
64924;HTU21D;51436;44.692;39.214;2024-03-08T11:30:07;4.84;67.27
64924;HTU21D;51436;44.692;39.214;2024-03-08T11:32:38;4.84;67.36
64924;HTU21D;51436;44.692;39.214;2024-03-08T11:35:08;4.88;67.27
64924;HTU21D;51436;44.692;39.214;2024-03-08T11:37:44;4.84;67.33
64924;HTU21D;51436;44.692;39.214;2024-03-08T11:40:14;4.81;67.44
64924;HTU21D;51436;44.692;39.214;2024-03-08T11:42:46;4.79;67.48
64924;HTU21D;51436;44.692;39.214;2024-03-08T11:45:21;4.78;67.47
64924;HTU21D;51436;44.692;39.214;2024-03-08T11:47:47;4.73;67.50
64924;HTU21D;51436;44.692;39.214;2024-03-08T11:50:14;4.64;67.65
64924;HTU21D;51436;44.692;39.214;2024-03-08T11:52:41;4.65;67.68
64924;HTU21D;51436;44.692;39.214;2024-03-08T11:55:11;4.63;67.65
64924;HTU21D;51436;44.692;39.214;2024-03-08T11:57:41;4.66;67.66
64924;HTU21D;51436;44.692;39.214;2024-03-08T12:00:17;4.71;67.52
64924;HTU21D;51436;44.692;39.214;2024-03-08T12:03:05;4.74;67.51
64924;HTU21D;51436;44.692;39.214;2024-03-08T12:05:33;4.75;67.44
64924;HTU21D;51436;44.692;39.214;2024-03-08T12:08:00;4.73;67.52
64924;HTU21D;51436;44.692;39.214;2024-03-08T12:10:28;4.77;67.47
64924;HTU21D;51436;44.692;39.214;2024-03-08T12:12:57;4.76;67.49
64924;HTU21D;51436;44.692;39.214;2024-03-08T12:15:26;4.81;67.44
64924;HTU21D;51436;44.692;39.214;2024-03-08T12:17:54;4.86;67.38
64924;HTU21D;51436;44.692;39.214;2024-03-08T12:20:24;4.88;67.33
64924;HTU21D;51436;44.692;39.214;2024-03-08T12:22:56;4.88;67.33
64924;HTU21D;51436;44.692;39.214;2024-03-08T12:25:26;4.83;67.39
64924;HTU21D;51436;44.692;39.214;2024-03-08T12:27:53;4.78;67.48
64924;HTU21D;51436;44.692;39.214;2024-03-08T12:35:21;4.65;67.71
64924;HTU21D;51436;44.692;39.214;2024-03-08T12:37:57;4.64;67.74
64924;HTU21D;51436;44.692;39.214;2024-03-08T12:40:29;4.65;67.71
64924;HTU21D;51436;44.692;39.214;2024-03-08T12:42:58;4.64;67.75
64924;HTU21D;51436;44.692;39.214;2024-03-08T12:45:25;4.64;67.73
64924;HTU21D;51436;44.692;39.214;2024-03-08T12:47:52;4.66;67.72
64924;HTU21D;51436;44.692;39.214;2024-03-08T12:50:20;4.74;67.59
64924;HTU21D;51436;44.692;39.214;2024-03-08T12:52:47;4.84;67.41
64924;HTU21D;51436;44.692;39.214;2024-03-08T12:55:18;4.87;67.35
64924;HTU21D;51436;44.692;39.214;2024-03-08T12:57:45;4.86;67.38
64924;HTU21D;51436;44.692;39.214;2024-03-08T13:00:13;4.84;67.43
64924;HTU21D;51436;44.692;39.214;2024-03-08T13:02:47;4.84;67.47
64924;HTU21D;51436;44.692;39.214;2024-03-08T13:05:14;4.86;67.52
64924;HTU21D;51436;44.692;39.214;2024-03-08T13:07:43;4.88;67.46
64924;HTU21D;51436;44.692;39.214;2024-03-08T13:10:13;4.87;67.44
64924;HTU21D;51436;44.692;39.214;2024-03-08T13:12:43;4.89;67.44
64924;HTU21D;51436;44.692;39.214;2024-03-08T13:15:10;4.89;67.50
64924;HTU21D;51436;44.692;39.214;2024-03-08T13:17:41;4.86;67.51
64924;HTU21D;51436;44.692;39.214;2024-03-08T13:20:08;4.83;67.54
64924;HTU21D;51436;44.692;39.214;2024-03-08T13:22:35;4.83;67.55
64924;HTU21D;51436;44.692;39.214;2024-03-08T13:25:02;4.81;67.61
64924;HTU21D;51436;44.692;39.214;2024-03-08T13:27:31;4.80;67.65
64924;HTU21D;51436;44.692;39.214;2024-03-08T13:30:17;4.83;67.57
64924;HTU21D;51436;44.692;39.214;2024-03-08T13:32:45;4.86;67.57
64924;HTU21D;51436;44.692;39.214;2024-03-08T13:35:14;4.92;67.44
64924;HTU21D;51436;44.692;39.214;2024-03-08T13:37:42;5.00;67.33
64924;HTU21D;51436;44.692;39.214;2024-03-08T13:40:11;5.04;67.23
64924;HTU21D;51436;44.692;39.214;2024-03-08T13:42:55;5.05;67.22
64924;HTU21D;51436;44.692;39.214;2024-03-08T13:45:21;5.01;67.29
64924;HTU21D;51436;44.692;39.214;2024-03-08T13:47:50;4.96;67.38
64924;HTU21D;51436;44.692;39.214;2024-03-08T13:50:19;4.92;67.46
64924;HTU21D;51436;44.692;39.214;2024-03-08T13:52:50;4.92;67.53
64924;HTU21D;51436;44.692;39.214;2024-03-08T13:55:20;4.91;67.51
64924;HTU21D;51436;44.692;39.214;2024-03-08T13:57:48;4.93;67.46
64924;HTU21D;51436;44.692;39.214;2024-03-08T14:00:15;4.89;67.54
64924;HTU21D;51436;44.692;39.214;2024-03-08T14:02:42;4.87;67.65
64924;HTU21D;51436;44.692;39.214;2024-03-08T14:05:09;4.86;67.71
64924;HTU21D;51436;44.692;39.214;2024-03-08T14:07:37;4.89;67.68
64924;HTU21D;51436;44.692;39.214;2024-03-08T14:10:04;4.93;67.60
64924;HTU21D;51436;44.692;39.214;2024-03-08T14:12:33;4.98;67.49
64924;HTU21D;51436;44.692;39.214;2024-03-08T14:14:59;5.03;67.43
64924;HTU21D;51436;44.692;39.214;2024-03-08T14:17:26;5.03;67.46
64924;HTU21D;51436;44.692;39.214;2024-03-08T14:19:53;5.00;67.50
64924;HTU21D;51436;44.692;39.214;2024-03-08T14:22:20;4.96;67.59
64924;HTU21D;51436;44.692;39.214;2024-03-08T14:24:47;4.96;67.54
64924;HTU21D;51436;44.692;39.214;2024-03-08T14:27:16;4.93;67.61
64924;HTU21D;51436;44.692;39.214;2024-03-08T14:29:44;4.90;67.68
64924;HTU21D;51436;44.692;39.214;2024-03-08T14:32:11;4.88;67.72
64924;HTU21D;51436;44.692;39.214;2024-03-08T14:34:39;4.81;67.88
64924;HTU21D;51436;44.692;39.214;2024-03-08T14:37:05;4.76;68.03
64924;HTU21D;51436;44.692;39.214;2024-03-08T14:39:37;4.78;67.94
64924;HTU21D;51436;44.692;39.214;2024-03-08T14:42:04;4.77;67.92
64924;HTU21D;51436;44.692;39.214;2024-03-08T14:44:32;4.79;67.87
64924;HTU21D;51436;44.692;39.214;2024-03-08T14:46:59;4.78;67.87
64924;HTU21D;51436;44.692;39.214;2024-03-08T14:49:26;4.81;67.82
64924;HTU21D;51436;44.692;39.214;2024-03-08T14:51:55;4.81;67.78
64924;HTU21D;51436;44.692;39.214;2024-03-08T14:54:24;4.81;67.77
64924;HTU21D;51436;44.692;39.214;2024-03-08T14:56:50;4.79;67.84
64924;HTU21D;51436;44.692;39.214;2024-03-08T14:59:17;4.80;67.82
64924;HTU21D;51436;44.692;39.214;2024-03-08T15:01:47;4.83;67.72
64924;HTU21D;51436;44.692;39.214;2024-03-08T15:04:18;4.83;67.73
64924;HTU21D;51436;44.692;39.214;2024-03-08T15:06:45;4.86;67.71
64924;HTU21D;51436;44.692;39.214;2024-03-08T15:09:14;4.83;67.70
64924;HTU21D;51436;44.692;39.214;2024-03-08T15:11:46;4.88;67.67
64924;HTU21D;51436;44.692;39.214;2024-03-08T15:14:15;4.91;67.63
64924;HTU21D;51436;44.692;39.214;2024-03-08T15:16:49;4.95;67.55
64924;HTU21D;51436;44.692;39.214;2024-03-08T15:19:15;4.95;67.60
64924;HTU21D;51436;44.692;39.214;2024-03-08T15:21:41;4.91;67.62
64924;HTU21D;51436;44.692;39.214;2024-03-08T15:24:11;4.89;67.68
64924;HTU21D;51436;44.692;39.214;2024-03-08T15:26:41;4.84;67.72
64924;HTU21D;51436;44.692;39.214;2024-03-08T15:29:09;4.82;67.90
64924;HTU21D;51436;44.692;39.214;2024-03-08T15:31:35;4.82;67.92
64924;HTU21D;51436;44.692;39.214;2024-03-08T15:34:04;4.81;67.92
64924;HTU21D;51436;44.692;39.214;2024-03-08T15:36:33;4.82;67.94
64924;HTU21D;51436;44.692;39.214;2024-03-08T15:39:00;4.83;67.88
64924;HTU21D;51436;44.692;39.214;2024-03-08T15:41:27;4.87;67.84
64924;HTU21D;51436;44.692;39.214;2024-03-08T15:43:55;4.88;67.78
64924;HTU21D;51436;44.692;39.214;2024-03-08T15:46:22;4.83;67.86